sensor_id;sensor_type;location;lat;lon;timestamp;P1;durP1;ratioP1;P2;durP2;ratioP2
11924;SDS011;6022;48.768;18.608;2023-04-25T00:01:25;1.93;;;1.83;;
11924;SDS011;6022;48.768;18.608;2023-04-25T00:03:53;2.53;;;2.33;;
11924;SDS011;6022;48.768;18.608;2023-04-25T00:06:20;1.70;;;1.60;;
11924;SDS011;6022;48.768;18.608;2023-04-25T00:08:48;2.33;;;1.87;;
11924;SDS011;6022;48.768;18.608;2023-04-25T00:11:15;3.27;;;1.67;;
11924;SDS011;6022;48.768;18.608;2023-04-25T00:13:42;1.70;;;1.60;;
11924;SDS011;6022;48.768;18.608;2023-04-25T00:16:09;2.20;;;1.90;;
11924;SDS011;6022;48.768;18.608;2023-04-25T00:18:37;1.87;;;1.63;;
11924;SDS011;6022;48.768;18.608;2023-04-25T00:21:04;1.80;;;1.67;;
11924;SDS011;6022;48.768;18.608;2023-04-25T00:23:32;2.33;;;1.60;;
11924;SDS011;6022;48.768;18.608;2023-04-25T00:26:04;3.03;;;1.00;;
11924;SDS011;6022;48.768;18.608;2023-04-25T00:28:33;1.97;;;1.87;;
11924;SDS011;6022;48.768;18.608;2023-04-25T00:31:04;1.67;;;1.50;;
11924;SDS011;6022;48.768;18.608;2023-04-25T00:33:31;2.03;;;1.63;;
11924;SDS011;6022;48.768;18.608;2023-04-25T00:35:58;0.90;;;0.90;;
11924;SDS011;6022;48.768;18.608;2023-04-25T00:38:31;2.57;;;1.73;;
11924;SDS011;6022;48.768;18.608;2023-04-25T00:40:58;4.00;;;1.20;;
11924;SDS011;6022;48.768;18.608;2023-04-25T00:43:26;1.50;;;1.40;;
11924;SDS011;6022;48.768;18.608;2023-04-25T00:45:54;0.87;;;0.87;;
11924;SDS011;6022;48.768;18.608;2023-04-25T00:48:23;2.90;;;1.27;;
11924;SDS011;6022;48.768;18.608;2023-04-25T00:50:52;1.17;;;1.13;;
11924;SDS011;6022;48.768;18.608;2023-04-25T00:53:24;1.07;;;1.00;;
11924;SDS011;6022;48.768;18.608;2023-04-25T00:55:53;0.57;;;0.57;;
11924;SDS011;6022;48.768;18.608;2023-04-25T00:58:21;1.33;;;1.23;;
11924;SDS011;6022;48.768;18.608;2023-04-25T01:00:49;1.03;;;0.93;;
11924;SDS011;6022;48.768;18.608;2023-04-25T01:03:18;1.40;;;1.23;;
11924;SDS011;6022;48.768;18.608;2023-04-25T01:05:47;1.40;;;1.30;;
11924;SDS011;6022;48.768;18.608;2023-04-25T01:08:14;2.27;;;1.13;;
11924;SDS011;6022;48.768;18.608;2023-04-25T01:10:42;1.33;;;1.20;;
11924;SDS011;6022;48.768;18.608;2023-04-25T01:13:09;2.60;;;2.10;;
11924;SDS011;6022;48.768;18.608;2023-04-25T01:15:37;1.43;;;1.27;;
11924;SDS011;6022;48.768;18.608;2023-04-25T01:18:04;1.13;;;1.03;;
11924;SDS011;6022;48.768;18.608;2023-04-25T01:20:33;1.03;;;1.00;;
11924;SDS011;6022;48.768;18.608;2023-04-25T01:23:00;1.70;;;1.43;;
11924;SDS011;6022;48.768;18.608;2023-04-25T01:25:30;1.40;;;1.30;;
11924;SDS011;6022;48.768;18.608;2023-04-25T01:27:58;1.47;;;1.37;;
11924;SDS011;6022;48.768;18.608;2023-04-25T01:30:25;2.20;;;1.33;;
11924;SDS011;6022;48.768;18.608;2023-04-25T01:32:54;3.87;;;1.80;;
11924;SDS011;6022;48.768;18.608;2023-04-25T01:35:23;1.70;;;1.60;;
11924;SDS011;6022;48.768;18.608;2023-04-25T01:37:51;1.80;;;1.40;;
11924;SDS011;6022;48.768;18.608;2023-04-25T01:40:18;1.47;;;1.37;;
11924;SDS011;6022;48.768;18.608;2023-04-25T01:42:49;2.30;;;1.17;;
11924;SDS011;6022;48.768;18.608;2023-04-25T01:45:17;1.60;;;1.20;;
11924;SDS011;6022;48.768;18.608;2023-04-25T01:47:44;3.00;;;1.50;;
11924;SDS011;6022;48.768;18.608;2023-04-25T01:50:16;1.33;;;1.23;;
11924;SDS011;6022;48.768;18.608;2023-04-25T01:52:45;0.97;;;0.90;;
11924;SDS011;6022;48.768;18.608;2023-04-25T01:55:13;1.93;;;1.73;;
11924;SDS011;6022;48.768;18.608;2023-04-25T01:57:40;1.57;;;1.47;;
11924;SDS011;6022;48.768;18.608;2023-04-25T02:00:08;1.40;;;1.30;;
11924;SDS011;6022;48.768;18.608;2023-04-25T02:02:36;1.50;;;1.20;;
11924;SDS011;6022;48.768;18.608;2023-04-25T02:05:03;2.63;;;1.97;;
11924;SDS011;6022;48.768;18.608;2023-04-25T02:07:32;1.33;;;1.17;;
11924;SDS011;6022;48.768;18.608;2023-04-25T02:09:59;1.40;;;1.30;;
11924;SDS011;6022;48.768;18.608;2023-04-25T02:12:27;1.80;;;1.70;;
11924;SDS011;6022;48.768;18.608;2023-04-25T02:14:55;1.10;;;1.03;;
11924;SDS011;6022;48.768;18.608;2023-04-25T02:17:22;2.90;;;1.50;;
11924;SDS011;6022;48.768;18.608;2023-04-25T02:19:49;1.57;;;1.47;;
11924;SDS011;6022;48.768;18.608;2023-04-25T02:22:16;1.90;;;1.63;;
11924;SDS011;6022;48.768;18.608;2023-04-25T02:24:43;1.87;;;1.73;;
11924;SDS011;6022;48.768;18.608;2023-04-25T02:27:11;1.10;;;1.03;;
11924;SDS011;6022;48.768;18.608;2023-04-25T02:29:38;1.40;;;1.30;;
11924;SDS011;6022;48.768;18.608;2023-04-25T02:32:05;1.27;;;1.10;;
11924;SDS011;6022;48.768;18.608;2023-04-25T02:34:32;1.47;;;0.83;;
11924;SDS011;6022;48.768;18.608;2023-04-25T02:36:59;1.47;;;1.20;;
11924;SDS011;6022;48.768;18.608;2023-04-25T02:39:26;1.67;;;1.10;;
11924;SDS011;6022;48.768;18.608;2023-04-25T02:41:54;1.37;;;1.20;;
11924;SDS011;6022;48.768;18.608;2023-04-25T02:44:21;1.40;;;1.17;;
11924;SDS011;6022;48.768;18.608;2023-04-25T02:46:48;1.07;;;0.87;;
11924;SDS011;6022;48.768;18.608;2023-04-25T02:49:15;1.87;;;1.33;;
11924;SDS011;6022;48.768;18.608;2023-04-25T02:51:43;1.30;;;1.20;;
11924;SDS011;6022;48.768;18.608;2023-04-25T02:54:10;1.50;;;1.40;;
11924;SDS011;6022;48.768;18.608;2023-04-25T02:56:37;1.67;;;1.27;;
11924;SDS011;6022;48.768;18.608;2023-04-25T02:59:04;1.53;;;1.13;;
11924;SDS011;6022;48.768;18.608;2023-04-25T03:01:31;1.03;;;1.03;;
11924;SDS011;6022;48.768;18.608;2023-04-25T03:03:59;0.90;;;0.90;;
11924;SDS011;6022;48.768;18.608;2023-04-25T03:06:26;1.30;;;1.30;;
11924;SDS011;6022;48.768;18.608;2023-04-25T03:08:53;1.57;;;1.47;;
11924;SDS011;6022;48.768;18.608;2023-04-25T03:11:20;1.97;;;1.70;;
11924;SDS011;6022;48.768;18.608;2023-04-25T03:13:47;1.63;;;1.37;;
11924;SDS011;6022;48.768;18.608;2023-04-25T03:16:15;1.20;;;1.10;;
11924;SDS011;6022;48.768;18.608;2023-04-25T03:18:42;0.87;;;0.80;;
11924;SDS011;6022;48.768;18.608;2023-04-25T03:21:09;1.10;;;1.00;;
11924;SDS011;6022;48.768;18.608;2023-04-25T03:23:36;0.63;;;0.63;;
11924;SDS011;6022;48.768;18.608;2023-04-25T03:26:04;1.40;;;1.33;;
11924;SDS011;6022;48.768;18.608;2023-04-25T03:28:31;2.00;;;1.87;;
11924;SDS011;6022;48.768;18.608;2023-04-25T03:30:58;1.50;;;1.10;;
11924;SDS011;6022;48.768;18.608;2023-04-25T03:33:26;1.27;;;1.10;;
11924;SDS011;6022;48.768;18.608;2023-04-25T03:35:53;0.57;;;0.57;;
11924;SDS011;6022;48.768;18.608;2023-04-25T03:38:20;3.77;;;1.40;;
11924;SDS011;6022;48.768;18.608;2023-04-25T03:40:48;0.90;;;0.90;;
11924;SDS011;6022;48.768;18.608;2023-04-25T03:43:17;0.33;;;0.33;;
11924;SDS011;6022;48.768;18.608;2023-04-25T03:45:44;1.07;;;1.03;;
11924;SDS011;6022;48.768;18.608;2023-04-25T03:48:12;1.60;;;1.50;;
11924;SDS011;6022;48.768;18.608;2023-04-25T03:50:40;1.80;;;1.70;;
11924;SDS011;6022;48.768;18.608;2023-04-25T03:53:07;4.10;;;2.83;;
11924;SDS011;6022;48.768;18.608;2023-04-25T03:55:34;3.23;;;1.43;;
11924;SDS011;6022;48.768;18.608;2023-04-25T03:58:02;1.33;;;1.13;;
11924;SDS011;6022;48.768;18.608;2023-04-25T04:00:29;0.90;;;0.90;;
11924;SDS011;6022;48.768;18.608;2023-04-25T04:02:56;0.90;;;0.90;;
11924;SDS011;6022;48.768;18.608;2023-04-25T04:05:24;1.50;;;1.40;;
11924;SDS011;6022;48.768;18.608;2023-04-25T04:07:51;1.43;;;1.33;;
11924;SDS011;6022;48.768;18.608;2023-04-25T04:10:18;0.50;;;0.50;;
11924;SDS011;6022;48.768;18.608;2023-04-25T04:12:46;0.87;;;0.87;;
11924;SDS011;6022;48.768;18.608;2023-04-25T04:15:13;3.10;;;0.77;;
11924;SDS011;6022;48.768;18.608;2023-04-25T04:17:40;0.70;;;0.70;;
11924;SDS011;6022;48.768;18.608;2023-04-25T04:20:08;0.90;;;0.90;;
11924;SDS011;6022;48.768;18.608;2023-04-25T04:22:35;1.80;;;1.10;;
11924;SDS011;6022;48.768;18.608;2023-04-25T04:25:03;1.50;;;1.30;;
11924;SDS011;6022;48.768;18.608;2023-04-25T04:27:32;2.50;;;2.30;;
11924;SDS011;6022;48.768;18.608;2023-04-25T04:29:59;1.40;;;1.30;;
11924;SDS011;6022;48.768;18.608;2023-04-25T04:32:27;1.17;;;1.00;;
11924;SDS011;6022;48.768;18.608;2023-04-25T04:34:54;1.47;;;1.37;;
11924;SDS011;6022;48.768;18.608;2023-04-25T04:37:21;2.67;;;0.97;;
11924;SDS011;6022;48.768;18.608;2023-04-25T04:39:49;0.67;;;0.67;;
11924;SDS011;6022;48.768;18.608;2023-04-25T04:42:16;0.90;;;0.90;;
11924;SDS011;6022;48.768;18.608;2023-04-25T04:44:43;0.40;;;0.40;;
11924;SDS011;6022;48.768;18.608;2023-04-25T04:47:11;1.00;;;1.00;;
11924;SDS011;6022;48.768;18.608;2023-04-25T04:49:40;1.20;;;1.07;;
11924;SDS011;6022;48.768;18.608;2023-04-25T04:52:08;0.80;;;0.80;;
11924;SDS011;6022;48.768;18.608;2023-04-25T04:54:44;0.80;;;0.80;;
11924;SDS011;6022;48.768;18.608;2023-04-25T04:57:11;0.70;;;0.70;;
11924;SDS011;6022;48.768;18.608;2023-04-25T04:59:38;1.23;;;1.13;;
11924;SDS011;6022;48.768;18.608;2023-04-25T05:02:05;1.10;;;1.03;;
11924;SDS011;6022;48.768;18.608;2023-04-25T05:04:32;1.23;;;1.17;;
11924;SDS011;6022;48.768;18.608;2023-04-25T05:06:59;1.27;;;1.17;;
11924;SDS011;6022;48.768;18.608;2023-04-25T05:09:27;2.57;;;1.17;;
11924;SDS011;6022;48.768;18.608;2023-04-25T05:11:54;0.67;;;0.67;;
11924;SDS011;6022;48.768;18.608;2023-04-25T05:14:21;0.60;;;0.60;;
11924;SDS011;6022;48.768;18.608;2023-04-25T05:16:49;0.77;;;0.60;;
11924;SDS011;6022;48.768;18.608;2023-04-25T05:19:17;1.20;;;1.10;;
11924;SDS011;6022;48.768;18.608;2023-04-25T05:21:44;0.77;;;0.77;;
11924;SDS011;6022;48.768;18.608;2023-04-25T05:24:11;0.93;;;0.77;;
11924;SDS011;6022;48.768;18.608;2023-04-25T05:26:39;0.60;;;0.60;;
11924;SDS011;6022;48.768;18.608;2023-04-25T05:29:06;3.27;;;0.80;;
11924;SDS011;6022;48.768;18.608;2023-04-25T05:31:34;1.00;;;1.00;;
11924;SDS011;6022;48.768;18.608;2023-04-25T05:34:02;0.60;;;0.60;;
11924;SDS011;6022;48.768;18.608;2023-04-25T05:36:30;0.50;;;0.50;;
11924;SDS011;6022;48.768;18.608;2023-04-25T05:38:58;0.60;;;0.60;;
11924;SDS011;6022;48.768;18.608;2023-04-25T05:41:25;0.60;;;0.57;;
11924;SDS011;6022;48.768;18.608;2023-04-25T05:43:53;0.63;;;0.63;;
11924;SDS011;6022;48.768;18.608;2023-04-25T05:46:23;0.43;;;0.43;;
11924;SDS011;6022;48.768;18.608;2023-04-25T05:48:50;0.10;;;0.10;;
11924;SDS011;6022;48.768;18.608;2023-04-25T05:51:17;0.87;;;0.57;;
11924;SDS011;6022;48.768;18.608;2023-04-25T05:53:44;0.30;;;0.30;;
11924;SDS011;6022;48.768;18.608;2023-04-25T05:56:12;0.20;;;0.20;;
11924;SDS011;6022;48.768;18.608;2023-04-25T05:58:39;0.20;;;0.20;;
11924;SDS011;6022;48.768;18.608;2023-04-25T06:01:06;0.10;;;0.10;;
11924;SDS011;6022;48.768;18.608;2023-04-25T06:03:35;0.20;;;0.20;;
11924;SDS011;6022;48.768;18.608;2023-04-25T06:06:04;0.30;;;0.30;;
11924;SDS011;6022;48.768;18.608;2023-04-25T06:08:32;0.23;;;0.23;;
11924;SDS011;6022;48.768;18.608;2023-04-25T06:10:59;0.47;;;0.47;;
11924;SDS011;6022;48.768;18.608;2023-04-25T06:13:26;0.80;;;0.60;;
11924;SDS011;6022;48.768;18.608;2023-04-25T06:15:53;0.80;;;0.80;;
11924;SDS011;6022;48.768;18.608;2023-04-25T06:18:20;0.40;;;0.40;;
11924;SDS011;6022;48.768;18.608;2023-04-25T06:20:48;0.50;;;0.50;;
11924;SDS011;6022;48.768;18.608;2023-04-25T06:23:15;0.50;;;0.50;;
11924;SDS011;6022;48.768;18.608;2023-04-25T06:25:42;0.10;;;0.10;;
11924;SDS011;6022;48.768;18.608;2023-04-25T06:28:09;0.90;;;0.90;;
11924;SDS011;6022;48.768;18.608;2023-04-25T06:30:37;0.50;;;0.50;;
11924;SDS011;6022;48.768;18.608;2023-04-25T06:33:05;0.40;;;0.30;;
11924;SDS011;6022;48.768;18.608;2023-04-25T06:35:33;0.50;;;0.50;;
11924;SDS011;6022;48.768;18.608;2023-04-25T06:38:00;0.30;;;0.20;;
11924;SDS011;6022;48.768;18.608;2023-04-25T06:40:27;1.10;;;0.83;;
11924;SDS011;6022;48.768;18.608;2023-04-25T06:42:54;0.40;;;0.40;;
11924;SDS011;6022;48.768;18.608;2023-04-25T06:45:21;0.53;;;0.30;;
11924;SDS011;6022;48.768;18.608;2023-04-25T06:47:49;0.43;;;0.43;;
11924;SDS011;6022;48.768;18.608;2023-04-25T06:50:18;0.40;;;0.37;;
11924;SDS011;6022;48.768;18.608;2023-04-25T06:52:45;0.53;;;0.53;;
11924;SDS011;6022;48.768;18.608;2023-04-25T06:55:21;0.30;;;0.30;;
11924;SDS011;6022;48.768;18.608;2023-04-25T06:57:48;0.30;;;0.30;;
11924;SDS011;6022;48.768;18.608;2023-04-25T07:00:16;0.60;;;0.60;;
11924;SDS011;6022;48.768;18.608;2023-04-25T07:02:44;0.60;;;0.27;;
11924;SDS011;6022;48.768;18.608;2023-04-25T07:05:11;1.03;;;0.50;;
11924;SDS011;6022;48.768;18.608;2023-04-25T07:07:42;0.30;;;0.30;;
11924;SDS011;6022;48.768;18.608;2023-04-25T07:10:12;2.60;;;0.83;;
11924;SDS011;6022;48.768;18.608;2023-04-25T07:12:40;0.20;;;0.20;;
11924;SDS011;6022;48.768;18.608;2023-04-25T07:15:09;0.40;;;0.40;;
11924;SDS011;6022;48.768;18.608;2023-04-25T07:17:38;0.20;;;0.20;;
11924;SDS011;6022;48.768;18.608;2023-04-25T07:20:11;1.07;;;0.93;;
11924;SDS011;6022;48.768;18.608;2023-04-25T07:22:38;0.20;;;0.20;;
11924;SDS011;6022;48.768;18.608;2023-04-25T07:25:06;0.73;;;0.73;;
11924;SDS011;6022;48.768;18.608;2023-04-25T07:27:44;0.53;;;0.53;;
11924;SDS011;6022;48.768;18.608;2023-04-25T07:30:12;1.33;;;0.70;;
11924;SDS011;6022;48.768;18.608;2023-04-25T07:32:39;0.23;;;0.23;;
11924;SDS011;6022;48.768;18.608;2023-04-25T07:35:07;1.13;;;0.80;;
11924;SDS011;6022;48.768;18.608;2023-04-25T07:37:35;0.63;;;0.40;;
11924;SDS011;6022;48.768;18.608;2023-04-25T07:40:06;0.57;;;0.57;;
11924;SDS011;6022;48.768;18.608;2023-04-25T07:42:35;0.83;;;0.83;;
11924;SDS011;6022;48.768;18.608;2023-04-25T07:45:03;0.97;;;0.60;;
11924;SDS011;6022;48.768;18.608;2023-04-25T07:47:36;1.50;;;0.70;;
11924;SDS011;6022;48.768;18.608;2023-04-25T07:50:06;0.50;;;0.50;;
11924;SDS011;6022;48.768;18.608;2023-04-25T07:52:34;0.40;;;0.30;;
11924;SDS011;6022;48.768;18.608;2023-04-25T07:55:03;0.77;;;0.77;;
11924;SDS011;6022;48.768;18.608;2023-04-25T07:57:31;0.30;;;0.30;;
11924;SDS011;6022;48.768;18.608;2023-04-25T08:00:01;0.60;;;0.60;;
11924;SDS011;6022;48.768;18.608;2023-04-25T08:02:28;1.03;;;0.50;;
11924;SDS011;6022;48.768;18.608;2023-04-25T08:04:56;0.73;;;0.73;;
11924;SDS011;6022;48.768;18.608;2023-04-25T08:07:23;0.20;;;0.20;;
11924;SDS011;6022;48.768;18.608;2023-04-25T08:09:51;0.63;;;0.50;;
11924;SDS011;6022;48.768;18.608;2023-04-25T08:12:18;0.20;;;0.20;;
11924;SDS011;6022;48.768;18.608;2023-04-25T08:14:51;0.30;;;0.30;;
11924;SDS011;6022;48.768;18.608;2023-04-25T08:17:18;0.37;;;0.37;;
11924;SDS011;6022;48.768;18.608;2023-04-25T08:19:45;0.40;;;0.40;;
11924;SDS011;6022;48.768;18.608;2023-04-25T08:22:13;0.83;;;0.83;;
11924;SDS011;6022;48.768;18.608;2023-04-25T08:24:41;0.30;;;0.30;;
11924;SDS011;6022;48.768;18.608;2023-04-25T08:27:08;0.33;;;0.33;;
11924;SDS011;6022;48.768;18.608;2023-04-25T08:29:43;0.47;;;0.47;;
11924;SDS011;6022;48.768;18.608;2023-04-25T08:32:18;0.37;;;0.37;;
11924;SDS011;6022;48.768;18.608;2023-04-25T08:34:52;0.17;;;0.17;;
11924;SDS011;6022;48.768;18.608;2023-04-25T08:37:24;0.30;;;0.30;;
11924;SDS011;6022;48.768;18.608;2023-04-25T08:39:52;0.60;;;0.60;;
11924;SDS011;6022;48.768;18.608;2023-04-25T08:42:28;0.50;;;0.50;;
11924;SDS011;6022;48.768;18.608;2023-04-25T08:45:08;0.13;;;0.13;;
11924;SDS011;6022;48.768;18.608;2023-04-25T08:47:46;1.10;;;0.43;;
11924;SDS011;6022;48.768;18.608;2023-04-25T08:50:22;0.70;;;0.70;;
11924;SDS011;6022;48.768;18.608;2023-04-25T08:52:59;0.67;;;0.67;;
11924;SDS011;6022;48.768;18.608;2023-04-25T08:56:03;0.40;;;0.40;;
11924;SDS011;6022;48.768;18.608;2023-04-25T08:58:39;0.57;;;0.53;;
11924;SDS011;6022;48.768;18.608;2023-04-25T09:01:07;0.63;;;0.63;;
11924;SDS011;6022;48.768;18.608;2023-04-25T09:03:39;2.73;;;0.97;;
11924;SDS011;6022;48.768;18.608;2023-04-25T09:06:13;0.83;;;0.63;;
11924;SDS011;6022;48.768;18.608;2023-04-25T09:08:45;0.97;;;0.60;;
11924;SDS011;6022;48.768;18.608;2023-04-25T09:11:12;0.30;;;0.30;;
11924;SDS011;6022;48.768;18.608;2023-04-25T09:13:43;0.60;;;0.60;;
11924;SDS011;6022;48.768;18.608;2023-04-25T09:16:16;0.63;;;0.13;;
11924;SDS011;6022;48.768;18.608;2023-04-25T09:18:48;1.20;;;0.87;;
11924;SDS011;6022;48.768;18.608;2023-04-25T09:21:15;0.17;;;0.17;;
11924;SDS011;6022;48.768;18.608;2023-04-25T09:23:44;0.73;;;0.73;;
11924;SDS011;6022;48.768;18.608;2023-04-25T09:26:20;1.07;;;0.83;;
11924;SDS011;6022;48.768;18.608;2023-04-25T09:29:06;1.60;;;0.90;;
11924;SDS011;6022;48.768;18.608;2023-04-25T09:31:34;0.50;;;0.50;;
11924;SDS011;6022;48.768;18.608;2023-04-25T09:34:04;0.70;;;0.70;;
11924;SDS011;6022;48.768;18.608;2023-04-25T09:37:03;2.90;;;1.80;;
11924;SDS011;6022;48.768;18.608;2023-04-25T09:39:32;0.83;;;0.63;;
11924;SDS011;6022;48.768;18.608;2023-04-25T09:42:05;0.63;;;0.63;;
11924;SDS011;6022;48.768;18.608;2023-04-25T09:45:26;1.23;;;0.97;;
11924;SDS011;6022;48.768;18.608;2023-04-25T09:48:26;0.73;;;0.73;;
11924;SDS011;6022;48.768;18.608;2023-04-25T09:51:19;0.70;;;0.70;;
11924;SDS011;6022;48.768;18.608;2023-04-25T09:54:05;0.50;;;0.50;;
11924;SDS011;6022;48.768;18.608;2023-04-25T09:56:36;0.50;;;0.50;;
11924;SDS011;6022;48.768;18.608;2023-04-25T09:59:05;2.33;;;0.67;;
11924;SDS011;6022;48.768;18.608;2023-04-25T10:01:36;0.80;;;0.80;;
11924;SDS011;6022;48.768;18.608;2023-04-25T10:04:08;2.00;;;0.67;;
11924;SDS011;6022;48.768;18.608;2023-04-25T10:06:38;0.60;;;0.60;;
11924;SDS011;6022;48.768;18.608;2023-04-25T10:09:09;0.80;;;0.60;;
11924;SDS011;6022;48.768;18.608;2023-04-25T10:11:38;0.83;;;0.63;;
11924;SDS011;6022;48.768;18.608;2023-04-25T10:14:07;0.97;;;0.77;;
11924;SDS011;6022;48.768;18.608;2023-04-25T10:16:34;0.70;;;0.70;;
11924;SDS011;6022;48.768;18.608;2023-04-25T10:19:02;6.47;;;1.37;;
11924;SDS011;6022;48.768;18.608;2023-04-25T10:21:30;1.53;;;1.07;;
11924;SDS011;6022;48.768;18.608;2023-04-25T10:24:00;1.60;;;1.10;;
11924;SDS011;6022;48.768;18.608;2023-04-25T10:26:28;1.10;;;0.60;;
11924;SDS011;6022;48.768;18.608;2023-04-25T10:29:00;2.57;;;1.20;;
11924;SDS011;6022;48.768;18.608;2023-04-25T10:31:31;1.23;;;0.83;;
11924;SDS011;6022;48.768;18.608;2023-04-25T10:34:00;2.40;;;0.80;;
11924;SDS011;6022;48.768;18.608;2023-04-25T10:36:30;1.43;;;1.33;;
11924;SDS011;6022;48.768;18.608;2023-04-25T10:39:03;0.93;;;0.87;;
11924;SDS011;6022;48.768;18.608;2023-04-25T10:41:51;2.30;;;1.33;;
11924;SDS011;6022;48.768;18.608;2023-04-25T10:44:26;0.90;;;0.90;;
11924;SDS011;6022;48.768;18.608;2023-04-25T10:47:00;0.80;;;0.80;;
11924;SDS011;6022;48.768;18.608;2023-04-25T10:49:34;0.93;;;0.60;;
11924;SDS011;6022;48.768;18.608;2023-04-25T10:52:27;0.93;;;0.87;;
11924;SDS011;6022;48.768;18.608;2023-04-25T10:54:56;0.70;;;0.70;;
11924;SDS011;6022;48.768;18.608;2023-04-25T10:57:39;1.37;;;0.90;;
11924;SDS011;6022;48.768;18.608;2023-04-25T11:00:15;0.83;;;0.83;;
11924;SDS011;6022;48.768;18.608;2023-04-25T11:03:21;0.73;;;0.73;;
11924;SDS011;6022;48.768;18.608;2023-04-25T11:06:04;0.97;;;0.97;;
11924;SDS011;6022;48.768;18.608;2023-04-25T11:08:52;1.60;;;1.50;;
11924;SDS011;6022;48.768;18.608;2023-04-25T11:11:20;1.97;;;1.27;;
11924;SDS011;6022;48.768;18.608;2023-04-25T11:14:16;0.83;;;0.83;;
11924;SDS011;6022;48.768;18.608;2023-04-25T11:16:53;1.30;;;1.27;;
11924;SDS011;6022;48.768;18.608;2023-04-25T11:19:44;0.93;;;0.93;;
11924;SDS011;6022;48.768;18.608;2023-04-25T11:22:18;2.07;;;1.40;;
11924;SDS011;6022;48.768;18.608;2023-04-25T11:24:48;3.17;;;1.10;;
11924;SDS011;6022;48.768;18.608;2023-04-25T11:27:15;1.20;;;1.17;;
11924;SDS011;6022;48.768;18.608;2023-04-25T11:29:43;1.60;;;1.50;;
11924;SDS011;6022;48.768;18.608;2023-04-25T11:32:10;1.23;;;1.13;;
11924;SDS011;6022;48.768;18.608;2023-04-25T11:34:37;1.40;;;1.30;;
11924;SDS011;6022;48.768;18.608;2023-04-25T11:37:05;0.80;;;0.80;;
11924;SDS011;6022;48.768;18.608;2023-04-25T11:39:33;1.20;;;1.10;;
11924;SDS011;6022;48.768;18.608;2023-04-25T11:42:01;1.27;;;1.17;;
11924;SDS011;6022;48.768;18.608;2023-04-25T11:44:33;0.93;;;0.87;;
11924;SDS011;6022;48.768;18.608;2023-04-25T11:47:26;1.33;;;1.23;;
11924;SDS011;6022;48.768;18.608;2023-04-25T11:50:10;2.43;;;1.80;;
11924;SDS011;6022;48.768;18.608;2023-04-25T11:52:41;1.60;;;1.50;;
11924;SDS011;6022;48.768;18.608;2023-04-25T11:55:19;2.30;;;1.83;;
11924;SDS011;6022;48.768;18.608;2023-04-25T11:57:48;2.30;;;1.97;;
11924;SDS011;6022;48.768;18.608;2023-04-25T12:00:18;1.40;;;1.30;;
11924;SDS011;6022;48.768;18.608;2023-04-25T12:02:53;1.73;;;1.63;;
11924;SDS011;6022;48.768;18.608;2023-04-25T12:05:29;1.87;;;1.63;;
11924;SDS011;6022;48.768;18.608;2023-04-25T12:10:43;3.97;;;1.77;;
11924;SDS011;6022;48.768;18.608;2023-04-25T12:13:23;1.00;;;1.00;;
11924;SDS011;6022;48.768;18.608;2023-04-25T12:15:56;1.10;;;1.10;;
11924;SDS011;6022;48.768;18.608;2023-04-25T12:18:26;1.07;;;1.07;;
11924;SDS011;6022;48.768;18.608;2023-04-25T12:20:54;0.93;;;0.93;;
11924;SDS011;6022;48.768;18.608;2023-04-25T12:23:28;1.60;;;1.17;;
11924;SDS011;6022;48.768;18.608;2023-04-25T12:25:56;1.13;;;1.13;;
11924;SDS011;6022;48.768;18.608;2023-04-25T12:28:24;1.63;;;1.53;;
11924;SDS011;6022;48.768;18.608;2023-04-25T12:31:09;2.70;;;1.33;;
11924;SDS011;6022;48.768;18.608;2023-04-25T12:33:37;1.40;;;1.30;;
11924;SDS011;6022;48.768;18.608;2023-04-25T12:36:13;1.50;;;1.20;;
11924;SDS011;6022;48.768;18.608;2023-04-25T12:38:47;1.43;;;1.30;;
11924;SDS011;6022;48.768;18.608;2023-04-25T12:41:15;1.07;;;0.97;;
11924;SDS011;6022;48.768;18.608;2023-04-25T12:43:42;1.70;;;1.50;;
11924;SDS011;6022;48.768;18.608;2023-04-25T12:46:09;1.00;;;1.00;;
11924;SDS011;6022;48.768;18.608;2023-04-25T12:48:48;0.87;;;0.83;;
11924;SDS011;6022;48.768;18.608;2023-04-25T12:51:16;1.20;;;1.10;;
11924;SDS011;6022;48.768;18.608;2023-04-25T12:53:43;1.30;;;1.20;;
11924;SDS011;6022;48.768;18.608;2023-04-25T12:56:11;1.73;;;0.63;;
11924;SDS011;6022;48.768;18.608;2023-04-25T12:58:51;1.10;;;1.00;;
11924;SDS011;6022;48.768;18.608;2023-04-25T13:01:20;0.93;;;0.80;;
11924;SDS011;6022;48.768;18.608;2023-04-25T13:03:50;1.30;;;1.20;;
11924;SDS011;6022;48.768;18.608;2023-04-25T13:06:22;0.70;;;0.70;;
11924;SDS011;6022;48.768;18.608;2023-04-25T13:08:49;1.47;;;1.07;;
11924;SDS011;6022;48.768;18.608;2023-04-25T13:11:19;1.57;;;1.47;;
11924;SDS011;6022;48.768;18.608;2023-04-25T13:13:55;1.07;;;0.97;;
11924;SDS011;6022;48.768;18.608;2023-04-25T13:16:24;1.30;;;0.73;;
11924;SDS011;6022;48.768;18.608;2023-04-25T13:18:52;5.20;;;1.07;;
11924;SDS011;6022;48.768;18.608;2023-04-25T13:21:22;0.70;;;0.70;;
11924;SDS011;6022;48.768;18.608;2023-04-25T13:23:50;1.17;;;0.97;;
11924;SDS011;6022;48.768;18.608;2023-04-25T13:26:17;1.33;;;1.10;;
11924;SDS011;6022;48.768;18.608;2023-04-25T13:28:45;3.10;;;1.47;;
11924;SDS011;6022;48.768;18.608;2023-04-25T13:31:16;1.20;;;1.20;;
11924;SDS011;6022;48.768;18.608;2023-04-25T13:33:43;0.83;;;0.83;;
11924;SDS011;6022;48.768;18.608;2023-04-25T13:36:12;0.90;;;0.80;;
11924;SDS011;6022;48.768;18.608;2023-04-25T13:38:39;1.20;;;1.10;;
11924;SDS011;6022;48.768;18.608;2023-04-25T13:41:10;1.60;;;1.10;;
11924;SDS011;6022;48.768;18.608;2023-04-25T13:43:42;0.80;;;0.80;;
11924;SDS011;6022;48.768;18.608;2023-04-25T13:46:09;0.87;;;0.87;;
11924;SDS011;6022;48.768;18.608;2023-04-25T13:48:59;0.77;;;0.77;;
11924;SDS011;6022;48.768;18.608;2023-04-25T13:51:38;0.80;;;0.80;;
11924;SDS011;6022;48.768;18.608;2023-04-25T13:54:06;1.10;;;0.93;;
11924;SDS011;6022;48.768;18.608;2023-04-25T13:56:34;1.03;;;0.87;;
11924;SDS011;6022;48.768;18.608;2023-04-25T13:59:01;0.90;;;0.80;;
11924;SDS011;6022;48.768;18.608;2023-04-25T14:01:29;1.03;;;1.00;;
11924;SDS011;6022;48.768;18.608;2023-04-25T14:03:57;1.30;;;1.20;;
11924;SDS011;6022;48.768;18.608;2023-04-25T14:06:25;5.30;;;1.63;;
11924;SDS011;6022;48.768;18.608;2023-04-25T14:08:56;0.70;;;0.70;;
11924;SDS011;6022;48.768;18.608;2023-04-25T14:11:35;1.00;;;1.00;;
11924;SDS011;6022;48.768;18.608;2023-04-25T14:14:07;0.77;;;0.77;;
11924;SDS011;6022;48.768;18.608;2023-04-25T14:16:35;1.10;;;0.67;;
11924;SDS011;6022;48.768;18.608;2023-04-25T14:19:03;1.40;;;1.30;;
11924;SDS011;6022;48.768;18.608;2023-04-25T14:21:30;0.93;;;0.93;;
11924;SDS011;6022;48.768;18.608;2023-04-25T14:24:00;1.13;;;0.80;;
11924;SDS011;6022;48.768;18.608;2023-04-25T14:26:27;0.50;;;0.50;;
11924;SDS011;6022;48.768;18.608;2023-04-25T14:28:55;1.40;;;0.90;;
11924;SDS011;6022;48.768;18.608;2023-04-25T14:31:22;4.77;;;0.80;;
11924;SDS011;6022;48.768;18.608;2023-04-25T14:33:49;0.80;;;0.80;;
11924;SDS011;6022;48.768;18.608;2023-04-25T14:36:22;1.20;;;1.03;;
11924;SDS011;6022;48.768;18.608;2023-04-25T14:38:49;0.57;;;0.57;;
11924;SDS011;6022;48.768;18.608;2023-04-25T14:41:17;0.80;;;0.80;;
11924;SDS011;6022;48.768;18.608;2023-04-25T14:43:49;0.83;;;0.83;;
11924;SDS011;6022;48.768;18.608;2023-04-25T14:46:21;0.50;;;0.50;;
11924;SDS011;6022;48.768;18.608;2023-04-25T14:48:51;1.57;;;1.00;;
11924;SDS011;6022;48.768;18.608;2023-04-25T14:51:19;1.17;;;1.07;;
11924;SDS011;6022;48.768;18.608;2023-04-25T14:53:47;2.87;;;1.20;;
11924;SDS011;6022;48.768;18.608;2023-04-25T14:56:24;2.60;;;1.13;;
11924;SDS011;6022;48.768;18.608;2023-04-25T14:59:00;1.47;;;1.33;;
11924;SDS011;6022;48.768;18.608;2023-04-25T15:01:28;1.20;;;1.10;;
11924;SDS011;6022;48.768;18.608;2023-04-25T15:03:57;0.93;;;0.93;;
11924;SDS011;6022;48.768;18.608;2023-04-25T15:06:31;2.77;;;1.27;;
11924;SDS011;6022;48.768;18.608;2023-04-25T15:08:58;2.43;;;1.23;;